createdAt,value
2023-01-17T00:02:27.284Z,2.30
2023-01-17T00:07:49.129Z,2.20
2023-01-17T00:12:55.779Z,2.20
2023-01-17T00:18:00.839Z,2.20
2023-01-17T00:23:25.853Z,2.20
2023-01-17T00:28:28.458Z,2.30
2023-01-17T00:33:32.246Z,2.20
2023-01-17T00:38:36.082Z,2.20
2023-01-17T00:43:57.328Z,2.30
2023-01-17T00:49:23.264Z,2.30
2023-01-17T00:54:46.177Z,2.40
2023-01-17T01:00:08.140Z,2.50
2023-01-17T01:05:31.986Z,2.60
2023-01-17T01:10:53.107Z,2.50
2023-01-17T01:16:14.373Z,2.50
2023-01-17T01:21:39.781Z,2.60
2023-01-17T01:27:00.491Z,2.60
2023-01-17T01:32:22.276Z,2.70
2023-01-17T01:37:28.139Z,2.70
2023-01-17T01:42:31.958Z,2.70
2023-01-17T01:47:38.155Z,2.50
2023-01-17T01:52:44.783Z,2.40
2023-01-17T01:57:50.264Z,2.40
2023-01-17T02:02:56.364Z,2.40
2023-01-17T02:08:06.220Z,2.30
2023-01-17T02:13:09.778Z,2.40
2023-01-17T02:18:18.264Z,2.40
2023-01-17T02:23:55.354Z,2.50
2023-01-17T02:29:14.421Z,2.40
2023-01-17T02:34:22.228Z,2.50
2023-01-17T02:39:27.149Z,2.50
2023-01-17T02:44:32.709Z,2.50
2023-01-17T02:49:38.235Z,2.50
2023-01-17T02:55:03.148Z,2.40
2023-01-17T03:00:09.446Z,2.40
2023-01-17T03:05:17.858Z,2.40
2023-01-17T03:10:22.245Z,2.30
2023-01-17T03:15:27.459Z,2.20
2023-01-17T03:20:33.125Z,2.10
2023-01-17T03:25:36.848Z,2.10
2023-01-17T03:30:40.342Z,2.10
2023-01-17T03:35:46.396Z,2.10
2023-01-17T03:40:51.242Z,2.00
2023-01-17T03:45:56.958Z,2.10
2023-01-17T03:51:01.869Z,2.00
2023-01-17T03:56:05.341Z,2.00
2023-01-17T04:01:09.523Z,2.00
2023-01-17T04:06:14.443Z,2.00
2023-01-17T04:11:18.092Z,1.90
2023-01-17T04:16:23.823Z,1.90
2023-01-17T04:21:30.357Z,1.90
2023-01-17T04:26:34.667Z,2.00
2023-01-17T04:31:38.138Z,1.90
2023-01-17T04:36:43.189Z,1.90
2023-01-17T04:41:48.445Z,1.90
2023-01-17T04:46:52.815Z,1.80
2023-01-17T04:51:57.470Z,1.80
2023-01-17T04:57:03.005Z,1.90
2023-01-17T05:02:07.243Z,1.80
2023-01-17T05:07:14.048Z,1.90
2023-01-17T05:12:18.656Z,2.10
2023-01-17T05:17:22.403Z,2.00
2023-01-17T05:22:28.311Z,2.10
2023-01-17T05:27:32.041Z,2.10
2023-01-17T05:32:36.007Z,1.90
2023-01-17T05:37:41.965Z,2.00
2023-01-17T05:42:48.646Z,1.70
2023-01-17T05:47:55.226Z,1.70
2023-01-17T05:53:01.235Z,2.00
2023-01-17T05:58:05.133Z,1.90
2023-01-17T06:03:08.727Z,1.90
2023-01-17T06:08:14.522Z,1.40
2023-01-17T06:13:22.287Z,1.10
2023-01-17T06:18:26.191Z,1.10
2023-01-17T06:23:31.826Z,1.10
2023-01-17T06:28:38.167Z,1.10
2023-01-17T06:33:43.552Z,1.00
2023-01-17T06:38:52.913Z,1.10
2023-01-17T06:43:57.572Z,1.00
2023-01-17T06:49:01.189Z,0.80
2023-01-17T06:54:06.531Z,0.90
2023-01-17T06:59:13.975Z,0.80
2023-01-17T07:04:25.300Z,0.80
2023-01-17T07:09:30.130Z,0.80
2023-01-17T07:14:33.942Z,0.80
2023-01-17T07:19:37.306Z,1.00
2023-01-17T07:24:43.047Z,1.00
2023-01-17T07:29:46.432Z,0.90
2023-01-17T07:34:51.248Z,0.90
2023-01-17T07:39:56.478Z,1.00
2023-01-17T07:45:00.987Z,1.00
2023-01-17T07:50:05.093Z,0.70
2023-01-17T07:55:11.887Z,0.50
2023-01-17T08:00:16.228Z,1.10
2023-01-17T08:05:24.311Z,1.60
2023-01-17T08:10:29.993Z,1.80
2023-01-17T08:15:33.791Z,1.60
2023-01-17T08:20:37.874Z,1.00
2023-01-17T08:25:42.934Z,0.70
2023-01-17T08:30:46.415Z,0.80
2023-01-17T08:35:54.342Z,1.30
2023-01-17T08:41:03.060Z,1.70
2023-01-17T08:46:07.888Z,1.50
2023-01-17T08:51:13.904Z,1.70
2023-01-17T08:56:18.858Z,1.30
2023-01-17T09:01:22.506Z,1.20
2023-01-17T09:06:26.943Z,1.30
2023-01-17T09:11:32.168Z,1.40
2023-01-17T09:16:36.023Z,1.50
2023-01-17T09:21:39.671Z,1.80
2023-01-17T09:26:47.092Z,2.20
2023-01-17T09:31:51.778Z,2.10
2023-01-17T09:36:57.143Z,2.10
2023-01-17T09:42:05.857Z,3.00
2023-01-17T09:47:17.973Z,3.30
2023-01-17T09:52:23.293Z,3.30
2023-01-17T09:57:38.595Z,3.60
2023-01-17T10:02:52.436Z,4.20
2023-01-17T10:08:04.858Z,4.40
2023-01-17T10:13:25.051Z,4.70
2023-01-17T10:18:57.846Z,5.00
2023-01-17T10:24:32.805Z,5.70
2023-01-17T10:29:38.085Z,6.40
2023-01-17T10:34:44.357Z,6.20
2023-01-17T10:39:52.016Z,6.90
2023-01-17T10:45:04.078Z,6.50
2023-01-17T10:50:13.636Z,6.20
2023-01-17T10:55:32.789Z,6.10
2023-01-17T11:00:52.547Z,7.20
2023-01-17T11:06:23.780Z,7.60
2023-01-17T11:11:31.015Z,7.10
2023-01-17T11:16:37.809Z,7.10
2023-01-17T11:21:42.137Z,6.30
2023-01-17T11:26:50.118Z,6.80
2023-01-17T11:31:56.254Z,6.70
2023-01-17T11:37:10.917Z,6.80
2023-01-17T11:42:33.147Z,7.20
2023-01-17T11:47:38.637Z,7.40
2023-01-17T11:52:44.488Z,7.40
2023-01-17T11:57:51.404Z,6.90
2023-01-17T12:03:17.311Z,7.50
2023-01-17T12:08:35.408Z,7.50
2023-01-17T12:14:03.810Z,7.60
2023-01-17T12:19:22.844Z,7.30
2023-01-17T12:24:38.185Z,7.90
2023-01-17T12:29:48.403Z,6.20
2023-01-17T12:34:57.393Z,6.00
2023-01-17T12:40:04.848Z,5.70
2023-01-17T12:45:11.140Z,5.20
2023-01-17T12:50:23.487Z,6.10
2023-01-17T12:55:38.245Z,6.20
2023-01-17T13:00:45.358Z,6.00
2023-01-17T13:05:51.397Z,6.20
2023-01-17T13:10:57.149Z,6.10
2023-01-17T13:16:04.542Z,5.70
2023-01-17T13:21:22.334Z,5.70
2023-01-17T13:26:31.551Z,5.80
2023-01-17T13:31:44.681Z,5.60
2023-01-17T13:37:05.672Z,5.50
2023-01-17T13:42:16.672Z,5.50
2023-01-17T13:47:41.743Z,5.70
2023-01-17T13:52:46.551Z,5.50
2023-01-17T13:57:50.451Z,5.30
2023-01-17T14:02:55.599Z,5.20
2023-01-17T14:08:03.624Z,5.30
2023-01-17T14:13:08.193Z,5.10
2023-01-17T14:18:31.170Z,4.90
2023-01-17T14:23:54.513Z,5.00
2023-01-17T14:28:58.673Z,4.80
2023-01-17T14:34:13.064Z,4.90
2023-01-17T14:39:25.784Z,5.00
2023-01-17T14:44:34.047Z,5.10
2023-01-17T14:49:38.794Z,4.70
2023-01-17T14:54:51.736Z,4.70
2023-01-17T15:00:16.141Z,4.70
2023-01-17T15:05:22.513Z,4.70
2023-01-17T15:10:30.407Z,4.70
2023-01-17T15:15:38.505Z,4.80
2023-01-17T15:20:46.103Z,4.90
2023-01-17T15:25:53.156Z,5.10
2023-01-17T15:31:09.083Z,5.00
2023-01-17T15:36:19.147Z,4.80
2023-01-17T15:41:31.049Z,4.50
2023-01-17T15:46:42.688Z,4.50
2023-01-17T15:51:49.271Z,4.10
2023-01-17T15:57:07.825Z,3.90
2023-01-17T16:02:28.395Z,3.70
2023-01-17T16:07:37.205Z,3.60
2023-01-17T16:12:43.553Z,2.90
2023-01-17T16:17:49.424Z,2.70
2023-01-17T16:22:55.291Z,2.80
2023-01-17T16:28:06.201Z,2.80
2023-01-17T16:33:11.129Z,2.50
2023-01-17T16:38:17.104Z,2.40
2023-01-17T16:43:22.500Z,2.30
2023-01-17T16:48:26.397Z,2.20
2023-01-17T16:53:33.788Z,2.20
2023-01-17T16:58:39.219Z,1.90
2023-01-17T17:03:42.991Z,1.70
2023-01-17T17:08:46.476Z,1.80
2023-01-17T17:13:52.421Z,1.80
2023-01-17T17:18:57.007Z,1.70
2023-01-17T17:24:01.059Z,1.50
2023-01-17T17:29:10.731Z,1.30
2023-01-17T17:34:20.983Z,1.40
2023-01-17T17:39:24.729Z,1.20
2023-01-17T17:44:30.400Z,1.10
2023-01-17T17:49:33.646Z,1.00
2023-01-17T17:54:39.639Z,0.90
2023-01-17T17:59:46.406Z,0.90
2023-01-17T18:04:50.782Z,0.70
2023-01-17T18:09:54.175Z,0.70
2023-01-17T18:14:59.020Z,0.60
2023-01-17T18:20:07.746Z,0.70
2023-01-17T18:25:12.805Z,0.70
2023-01-17T18:30:18.694Z,0.50
2023-01-17T18:35:22.145Z,0.60
2023-01-17T18:40:25.436Z,0.60
2023-01-17T18:45:30.497Z,0.50
2023-01-17T18:50:33.837Z,0.50
2023-01-17T18:55:37.654Z,0.70
2023-01-17T19:00:43.339Z,0.60
2023-01-17T19:05:50.318Z,0.40
2023-01-17T19:10:53.467Z,0.20
2023-01-17T19:16:00.397Z,0.30
2023-01-17T19:21:07.365Z,0.30
2023-01-17T19:26:12.699Z,0.30
2023-01-17T19:31:20.504Z,0.60
2023-01-17T19:36:24.629Z,0.70
2023-01-17T19:41:29.643Z,0.40
2023-01-17T19:46:37.882Z,0.30
2023-01-17T19:51:41.661Z,0.30
2023-01-17T19:56:46.312Z,0.50
2023-01-17T20:01:52.590Z,0.60
2023-01-17T20:06:56.193Z,0.50
2023-01-17T20:11:59.603Z,0.40
2023-01-17T20:17:04.874Z,0.20
2023-01-17T20:22:09.039Z,0.20
2023-01-17T20:27:12.735Z,0.10
2023-01-17T20:32:18.332Z,0.30
2023-01-17T20:37:22.283Z,0.20
2023-01-17T20:42:27.127Z,0.20
2023-01-17T20:47:32.070Z,0.20
2023-01-17T20:52:36.503Z,0.20
2023-01-17T20:57:43.307Z,0.10
2023-01-17T21:02:50.000Z,0.10
2023-01-17T21:07:53.844Z,0.20
2023-01-17T21:12:57.677Z,0.30
2023-01-17T21:18:03.034Z,0.30
2023-01-17T21:23:09.159Z,0.10
2023-01-17T21:28:12.630Z,0.00
2023-01-17T21:33:18.317Z,0.30
2023-01-17T21:38:21.901Z,0.40
2023-01-17T21:43:25.450Z,0.30
2023-01-17T21:48:30.265Z,0.30
2023-01-17T21:53:33.592Z,0.20
2023-01-17T21:58:44.829Z,0.40
2023-01-17T22:03:51.657Z,0.40
2023-01-17T22:08:55.480Z,0.40
2023-01-17T22:13:59.484Z,0.30
2023-01-17T22:19:05.193Z,0.20
2023-01-17T22:24:09.712Z,0.30
2023-01-17T22:29:17.029Z,0.20
2023-01-17T22:34:22.856Z,0.30
2023-01-17T22:39:26.492Z,0.20
2023-01-17T22:44:31.003Z,0.20
2023-01-17T22:49:36.286Z,0.20
2023-01-17T22:54:39.984Z,0.30
2023-01-17T22:59:43.810Z,0.30
2023-01-17T23:04:49.790Z,0.40
2023-01-17T23:09:53.404Z,0.30
2023-01-17T23:15:14.161Z,0.30
2023-01-17T23:20:21.396Z,0.10
2023-01-17T23:25:25.581Z,0.10
2023-01-17T23:30:34.817Z,-0.10
2023-01-17T23:35:42.412Z,0.10
2023-01-17T23:41:06.669Z,0.20
2023-01-17T23:46:12.256Z,0.20
2023-01-17T23:51:18.127Z,0.10
2023-01-17T23:56:22.617Z,0.30
